Time;durP1;ratioP1;P1;durP2;ratioP2;P2;SDS_P1;SDS_P2;PMS_P1;PMS_P2;Temp;Humidity;BMP_temperature;BMP_pressure;BME280_temperature;BME280_humidity;BME280_pressure;Samples;Min_cycle;Max_cycle;Signal;HPM_P1;HPM_P2
2021/04/03 04:53:43;;;;;;;15.70;9.75;;;;;;;;;;6313602;22;20023;-79
2021/04/03 04:56:09;;;;;;;17.77;9.13;;;;;;;;;;6285951;22;20072;-79
2021/04/03 04:58:35;;;;;;;18.75;9.88;;;;;;;;;;6287631;22;20038;-81
2021/04/03 05:01:00;;;;;;;14.85;9.20;;;;;;;;;;6315442;22;20030;-82
2021/04/03 05:03:28;;;;;;;15.98;8.85;;;;;;;;;;6298673;22;20003;-82
2021/04/03 05:05:53;;;;;;;15.32;9.38;;;;;;;;;;6329248;22;19995;-82
2021/04/03 05:08:19;;;;;;;14.18;8.05;;;;;;;;;;6327833;22;19995;-81
2021/04/03 05:10:44;;;;;;;10.65;7.18;;;;;;;;;;6299567;22;20010;-81
2021/04/03 05:13:10;;;;;;;16.42;7.65;;;;;;;;;;6320620;22;19999;-81
2021/04/03 05:15:36;;;;;;;13.50;7.85;;;;;;;;;;6293029;22;20003;-82
2021/04/03 05:18:01;;;;;;;13.10;7.85;;;;;;;;;;6320463;22;20074;-81
2021/04/03 05:20:27;;;;;;;14.13;8.82;;;;;;;;;;6293139;22;20062;-81
2021/04/03 05:22:53;;;;;;;13.65;7.95;;;;;;;;;;6321066;22;20054;-81
2021/04/03 05:25:18;;;;;;;17.25;7.50;;;;;;;;;;6320596;22;20015;-83
2021/04/03 05:27:44;;;;;;;13.18;7.38;;;;;;;;;;6294198;22;20460;-83
2021/04/03 05:30:10;;;;;;;11.40;6.97;;;;;;;;;;6321516;22;20030;-82
2021/04/03 05:32:36;;;;;;;11.40;7.00;;;;;;;;;;6321321;22;20034;-82
2021/04/03 05:35:03;;;;;;;10.45;6.65;;;;;;;;;;6291187;22;20014;-82
2021/04/03 05:37:28;;;;;;;13.23;8.13;;;;;;;;;;6286318;22;20003;-82
2021/04/03 05:39:54;;;;;;;11.20;7.05;;;;;;;;;;6316361;22;20003;-82
2021/04/03 05:42:20;;;;;;;10.60;6.93;;;;;;;;;;6319544;22;19999;-81
2021/04/03 05:44:46;;;;;;;17.92;7.78;;;;;;;;;;6318169;22;20471;-81
2021/04/03 05:47:12;;;;;;;11.48;6.63;;;;;;;;;;6290795;22;20384;-81
2021/04/03 05:49:39;;;;;;;10.70;6.82;;;;;;;;;;6319419;22;20022;-82
2021/04/03 06:04:46;;;;;;;12.52;7.43;;;;;;;;;;5114927;27;20416;-79
2021/04/03 06:07:12;;;;;;;12.85;7.35;;;;;;;;;;5109495;28;20045;-79
2021/04/03 06:09:38;;;;;;;16.40;7.22;;;;;;;;;;5105660;28;20481;-81
2021/04/03 06:12:04;;;;;;;15.18;9.88;;;;;;;;;;5098736;28;20017;-80
2021/04/03 06:14:35;;;;;;;14.05;8.20;;;;;;;;;;5097182;28;20029;-80
2021/04/03 06:17:01;;;;;;;13.98;8.20;;;;;;;;;;5103692;28;20454;-80
2021/04/03 06:19:27;;;;;;;14.25;8.15;;;;;;;;;;5108621;28;20054;-80
2021/04/03 06:21:52;;;;;;;12.70;7.13;;;;;;;;;;5103797;28;20021;-80
2021/04/03 06:24:30;;;;;;;13.07;7.55;;;;;;;;;;5094769;28;20421;-80
2021/04/03 06:26:57;;;;;;;14.93;8.85;;;;;;;;;;5100465;28;20034;-80
2021/04/03 06:29:26;;;;;;;12.57;7.85;;;;;;;;;;5103335;28;20012;-80
2021/04/03 06:31:54;;;;;;;15.35;8.50;;;;;;;;;;5101932;28;20054;-80
2021/04/03 06:34:26;;;;;;;10.82;6.93;;;;;;;;;;5102358;28;20016;-80
2021/04/03 06:36:52;;;;;;;9.65;6.88;;;;;;;;;;5100225;28;20419;-80
2021/04/03 06:39:18;;;;;;;15.10;7.63;;;;;;;;;;5099355;28;20023;-80
2021/04/03 06:41:44;;;;;;;15.45;8.18;;;;;;;;;;5102210;28;20095;-80
2021/04/03 06:44:11;;;;;;;15.73;10.13;;;;;;;;;;5101795;28;20058;-80
2021/04/03 06:46:41;;;;;;;14.75;9.95;;;;;;;;;;5096787;28;20024;-80
2021/04/03 06:49:07;;;;;;;14.00;8.90;;;;;;;;;;5093980;28;20051;-80
2021/04/03 06:51:33;;;;;;;18.20;9.40;;;;;;;;;;5100218;28;20390;-81
2021/04/03 06:53:59;;;;;;;17.58;9.18;;;;;;;;;;5095862;28;20021;-80
2021/04/03 06:56:26;;;;;;;16.95;9.77;;;;;;;;;;5109501;28;20104;-82
2021/04/03 06:58:58;;;;;;;24.65;14.73;;;;;;;;;;5107990;28;20012;-80
2021/04/03 07:01:25;;;;;;;17.30;10.98;;;;;;;;;;5104736;28;20024;-80
2021/04/03 07:03:57;;;;;;;43.50;23.80;;;;;;;;;;5108827;28;20020;-82
2021/04/03 07:06:25;;;;;;;43.92;23.90;;;;;;;;;;5087704;28;20027;-83
2021/04/03 07:08:51;;;;;;;36.90;19.58;;;;;;;;;;5093989;28;20401;-79
2021/04/03 07:11:17;;;;;;;23.30;11.55;;;;;;;;;;5095013;28;20028;-82
2021/04/03 07:13:46;;;;;;;16.55;7.55;;;;;;;;;;5099817;28;20024;-83
2021/04/03 07:16:12;;;;;;;11.85;4.65;;;;;;;;;;5097713;28;20031;-84
2021/04/03 07:18:40;;;;;;;9.65;4.47;;;;;;;;;;5091844;28;20028;-83
2021/04/03 07:21:07;;;;;;;12.55;4.22;;;;;;;;;;5093244;28;20027;-82
2021/04/03 07:23:33;;;;;;;12.23;4.40;;;;;;;;;;5089736;28;20050;-82
2021/04/03 07:26:00;;;;;;;8.60;3.80;;;;;;;;;;5096840;28;20020;-82
2021/04/03 07:28:38;;;;;;;11.10;4.00;;;;;;;;;;5085516;28;20028;-81
2021/04/03 07:31:05;;;;;;;12.73;3.85;;;;;;;;;;5093371;28;20028;-82
2021/04/03 07:33:31;;;;;;;6.05;3.45;;;;;;;;;;5082827;28;20031;-80
2021/04/03 07:35:57;;;;;;;11.75;4.22;;;;;;;;;;5089421;28;20436;-78
2021/04/03 07:38:36;;;;;;;7.93;4.38;;;;;;;;;;5072484;28;20051;-80
2021/04/03 07:41:04;;;;;;;12.40;5.13;;;;;;;;;;5083984;28;20110;-80
2021/04/03 07:43:30;;;;;;;9.15;4.97;;;;;;;;;;5080085;28;20028;-78
2021/04/03 07:46:00;;;;;;;9.05;4.28;;;;;;;;;;5071755;28;20056;-79
2021/04/03 07:48:38;;;;;;;11.77;4.75;;;;;;;;;;5080091;28;20359;-79
2021/04/03 07:51:04;;;;;;;12.35;5.32;;;;;;;;;;5081096;28;20017;-78
2021/04/03 07:53:37;;;;;;;9.98;4.50;;;;;;;;;;5079934;28;20098;-79
2021/04/03 07:56:03;;;;;;;12.25;4.47;;;;;;;;;;5086994;28;20428;-79
2021/04/03 07:58:33;;;;;;;18.95;4.63;;;;;;;;;;5089784;28;20615;-79
2021/04/03 08:01:00;;;;;;;12.55;5.30;;;;;;;;;;5083462;28;20048;-80
2021/04/03 08:03:31;;;;;;;7.40;3.63;;;;;;;;;;5075134;28;20028;-80
2021/04/03 08:05:58;;;;;;;10.18;4.10;;;;;;;;;;5080480;28;20024;-81
2021/04/03 08:08:23;;;;;;;10.50;4.70;;;;;;;;;;5096023;28;20008;-82
2021/04/03 08:10:49;;;;;;;7.18;4.38;;;;;;;;;;5087753;28;20063;-79
2021/04/03 08:13:18;;;;;;;11.85;5.18;;;;;;;;;;5083686;28;20575;-79
2021/04/03 08:15:48;;;;;;;8.70;4.47;;;;;;;;;;5084255;28;20429;-80
2021/04/03 08:18:13;;;;;;;8.70;3.85;;;;;;;;;;5084013;28;20009;-81
2021/04/03 08:20:49;;;;;;;10.65;4.43;;;;;;;;;;5072171;28;20023;-79
2021/04/03 08:23:15;;;;;;;11.40;4.28;;;;;;;;;;5086925;28;20119;-78
2021/04/03 08:25:52;;;;;;;10.25;4.18;;;;;;;;;;5086342;28;20046;-79
2021/04/03 08:28:19;;;;;;;10.30;4.90;;;;;;;;;;5074509;28;20078;-80
2021/04/03 08:30:44;;;;;;;7.63;4.05;;;;;;;;;;5078787;28;20028;-79
2021/04/03 08:33:13;;;;;;;11.80;4.45;;;;;;;;;;5086415;28;20039;-81
2021/04/03 08:35:40;;;;;;;12.40;4.25;;;;;;;;;;5081017;28;20059;-80
2021/04/03 08:38:06;;;;;;;8.02;4.38;;;;;;;;;;5078523;28;20482;-79
2021/04/03 08:40:32;;;;;;;12.23;4.75;;;;;;;;;;5076380;28;20016;-80
2021/04/03 08:43:00;;;;;;;9.38;4.18;;;;;;;;;;5078890;28;20054;-78
2021/04/03 08:45:26;;;;;;;6.82;4.13;;;;;;;;;;5075778;28;20107;-78
2021/04/03 08:47:51;;;;;;;7.90;3.72;;;;;;;;;;5073631;28;20028;-79
2021/04/03 08:50:17;;;;;;;41.17;32.47;;;;;;;;;;5081981;28;20017;-80
2021/04/03 08:52:44;;;;;;;17.13;9.60;;;;;;;;;;5084129;28;20382;-79
2021/04/03 08:55:10;;;;;;;11.85;4.35;;;;;;;;;;5083308;28;20025;-81
2021/04/03 08:57:36;;;;;;;10.48;4.93;;;;;;;;;;5082862;28;20490;-79
2021/04/03 09:00:02;;;;;;;9.75;4.32;;;;;;;;;;5087369;28;20077;-79
2021/04/03 09:02:29;;;;;;;7.68;4.28;;;;;;;;;;5080871;28;20021;-81
2021/04/03 09:04:55;;;;;;;11.40;4.38;;;;;;;;;;5076667;28;20432;-80
2021/04/03 09:07:33;;;;;;;10.27;5.10;;;;;;;;;;5086648;28;20020;-80
2021/04/03 09:10:08;;;;;;;16.38;5.90;;;;;;;;;;5085246;28;20074;-83
2021/04/03 09:12:38;;;;;;;10.68;4.72;;;;;;;;;;5065335;28;20482;-83
2021/04/03 09:15:06;;;;;;;9.57;4.82;;;;;;;;;;5079417;28;20060;-83
2021/04/03 09:17:32;;;;;;;12.80;5.05;;;;;;;;;;5078020;28;20028;-83
2021/04/03 09:20:08;;;;;;;10.25;4.85;;;;;;;;;;5087688;28;20021;-83
2021/04/03 09:22:38;;;;;;;11.02;4.43;;;;;;;;;;5074948;28;20521;-83
2021/04/03 09:27:22;;;;;;;8.68;4.40;;;;;;;;;;5159621;27;20364;-84
2021/04/03 09:29:48;;;;;;;10.48;5.10;;;;;;;;;;5148954;27;20023;-83
2021/04/03 09:32:15;;;;;;;9.15;4.90;;;;;;;;;;5148143;27;20196;-83
2021/04/03 09:34:41;;;;;;;9.45;4.68;;;;;;;;;;5143104;27;20019;-82
2021/04/03 09:37:14;;;;;;;11.93;4.68;;;;;;;;;;5147088;27;20026;-82
2021/04/03 09:39:56;;;;;;;7.82;4.30;;;;;;;;;;5149961;27;20007;-82
2021/04/03 09:42:26;;;;;;;12.23;4.63;;;;;;;;;;5145226;27;20037;-82
2021/04/03 09:44:56;;;;;;;9.50;4.07;;;;;;;;;;5150576;27;20501;-82
2021/04/03 09:47:22;;;;;;;10.50;4.93;;;;;;;;;;5153629;27;20102;-82
2021/04/03 09:49:49;;;;;;;9.65;4.53;;;;;;;;;;5153836;27;20023;-82
2021/04/03 09:52:15;;;;;;;10.85;4.43;;;;;;;;;;5147648;27;20043;-82
2021/04/03 09:54:41;;;;;;;9.55;3.58;;;;;;;;;;5142389;27;20023;-83
2021/04/03 09:57:07;;;;;;;10.32;4.47;;;;;;;;;;5148841;27;20015;-82
2021/04/03 09:59:33;;;;;;;7.65;4.07;;;;;;;;;;5139762;27;20022;-82
2021/04/03 10:01:59;;;;;;;9.45;3.88;;;;;;;;;;5132706;27;20015;-82
2021/04/03 10:04:25;;;;;;;7.40;3.50;;;;;;;;;;5140178;27;20026;-82
2021/04/03 10:06:52;;;;;;;9.10;4.03;;;;;;;;;;5142098;27;20026;-82
2021/04/03 10:11:37;;;;;;;5.88;3.47;;;;;;;;;;5108261;27;20372;-88
2021/04/03 10:14:03;;;;;;;9.82;4.07;;;;;;;;;;5101533;28;20404;-88
2021/04/03 10:16:28;;;;;;;6.80;3.78;;;;;;;;;;5097124;28;20025;-88
2021/04/03 10:18:54;;;;;;;7.50;3.88;;;;;;;;;;5103416;28;20026;-88
2021/04/03 10:21:20;;;;;;;9.07;3.70;;;;;;;;;;5094411;28;20427;-88
2021/04/03 10:23:46;;;;;;;7.55;3.38;;;;;;;;;;5091885;28;20035;-90
2021/04/03 10:26:11;;;;;;;9.20;3.30;;;;;;;;;;5101745;28;20035;-90
2021/04/03 10:28:37;;;;;;;14.15;4.65;;;;;;;;;;5097479;28;20024;-91
2021/04/03 10:31:03;;;;;;;6.22;3.15;;;;;;;;;;5102403;28;20077;-90
2021/04/03 10:35:47;;;;;;;10.70;3.35;;;;;;;;;;5125720;27;20914;-82
2021/04/03 10:38:12;;;;;;;5.93;2.45;;;;;;;;;;5119508;27;20031;-82
2021/04/03 10:40:38;;;;;;;9.65;3.53;;;;;;;;;;5118563;28;20379;-82
2021/04/03 10:43:04;;;;;;;10.27;2.53;;;;;;;;;;5122884;28;20024;-83
2021/04/03 10:45:30;;;;;;;8.02;3.90;;;;;;;;;;5111554;28;20020;-83
2021/04/03 10:47:56;;;;;;;8.18;3.13;;;;;;;;;;5123507;28;20088;-83
2021/04/03 10:50:21;;;;;;;5.50;2.97;;;;;;;;;;5113003;28;20016;-83
2021/04/03 10:52:47;;;;;;;5.68;2.90;;;;;;;;;;5121268;28;20041;-83
2021/04/03 10:55:13;;;;;;;6.20;2.33;;;;;;;;;;5113891;28;20020;-83
2021/04/03 10:57:39;;;;;;;5.65;2.95;;;;;;;;;;5116219;28;20028;-83
2021/04/03 11:00:05;;;;;;;4.88;2.03;;;;;;;;;;5116734;28;20027;-83
2021/04/03 11:02:30;;;;;;;8.23;3.30;;;;;;;;;;5124470;28;20023;-83
2021/04/03 11:04:56;;;;;;;5.13;2.40;;;;;;;;;;5108590;28;20039;-83
2021/04/03 11:07:22;;;;;;;5.22;2.58;;;;;;;;;;5120177;28;20031;-83
2021/04/03 11:09:47;;;;;;;5.15;2.15;;;;;;;;;;5112122;28;20427;-83
2021/04/03 11:12:14;;;;;;;6.63;2.70;;;;;;;;;;5113277;28;20022;-83
2021/04/03 11:14:41;;;;;;;6.35;2.50;;;;;;;;;;5121241;27;20027;-83
2021/04/03 11:17:07;;;;;;;6.40;2.25;;;;;;;;;;5111992;28;20078;-83
2021/04/03 11:19:32;;;;;;;7.40;2.70;;;;;;;;;;5123482;27;20578;-83
2021/04/03 11:21:58;;;;;;;6.25;2.67;;;;;;;;;;5117416;28;20020;-83
2021/04/03 11:24:24;;;;;;;5.78;2.55;;;;;;;;;;5118517;28;20566;-84
2021/04/03 11:26:50;;;;;;;4.63;2.13;;;;;;;;;;5119051;27;20028;-84
2021/04/03 11:29:16;;;;;;;4.95;2.03;;;;;;;;;;5111604;28;20026;-84
2021/04/03 11:34:01;;;;;;;8.73;2.30;;;;;;;;;;5118463;27;20433;-83
2021/04/03 11:36:26;;;;;;;9.77;2.10;;;;;;;;;;5124921;27;20028;-83
2021/04/03 11:38:52;;;;;;;6.10;2.53;;;;;;;;;;5112616;28;20035;-83
2021/04/03 11:41:18;;;;;;;5.07;2.33;;;;;;;;;;5112170;28;20068;-83
2021/04/03 11:43:43;;;;;;;4.50;2.00;;;;;;;;;;5114425;28;20046;-83
2021/04/03 11:46:09;;;;;;;5.28;1.77;;;;;;;;;;5120342;28;20057;-84
2021/04/03 11:48:35;;;;;;;3.80;1.75;;;;;;;;;;5120515;28;20016;-84
2021/04/03 11:51:01;;;;;;;4.00;2.00;;;;;;;;;;5112957;28;20076;-84
2021/04/03 11:53:27;;;;;;;6.22;2.42;;;;;;;;;;5124060;27;20065;-84
2021/04/03 11:55:52;;;;;;;7.38;2.10;;;;;;;;;;5113534;28;20484;-84
2021/04/03 11:58:18;;;;;;;9.98;2.22;;;;;;;;;;5121582;28;20018;-84
2021/04/03 12:00:44;;;;;;;4.68;1.45;;;;;;;;;;5115081;27;20062;-84
2021/04/03 12:03:09;;;;;;;7.97;2.03;;;;;;;;;;5120281;28;20034;-84
2021/04/03 12:05:35;;;;;;;9.38;2.00;;;;;;;;;;5119472;27;20514;-84
2021/04/03 12:08:01;;;;;;;6.15;2.85;;;;;;;;;;5114827;27;20026;-84
2021/04/03 12:10:26;;;;;;;5.85;2.03;;;;;;;;;;5119805;27;20023;-84
2021/04/03 12:15:12;;;;;;;5.43;2.10;;;;;;;;;;5079287;28;20695;-83
2021/04/03 12:17:38;;;;;;;4.32;1.77;;;;;;;;;;5063546;28;20087;-83
2021/04/03 12:20:05;;;;;;;5.97;2.38;;;;;;;;;;5063389;28;20030;-83
2021/04/03 12:22:31;;;;;;;6.35;2.20;;;;;;;;;;5066408;28;20021;-84
2021/04/03 12:24:56;;;;;;;6.93;2.15;;;;;;;;;;5059384;28;20012;-83
2021/04/03 12:27:22;;;;;;;6.53;1.80;;;;;;;;;;5062548;28;20388;-84
2021/04/03 12:29:48;;;;;;;5.30;1.98;;;;;;;;;;5055482;28;20040;-84
2021/04/03 12:32:14;;;;;;;5.40;1.48;;;;;;;;;;5060619;28;20044;-84
2021/04/03 12:34:39;;;;;;;4.80;1.92;;;;;;;;;;5056393;28;20013;-84
2021/04/03 12:37:05;;;;;;;5.60;1.80;;;;;;;;;;5059877;28;20224;-83
2021/04/03 12:39:31;;;;;;;4.78;2.38;;;;;;;;;;5061953;28;19931;-83
2021/04/03 12:41:56;;;;;;;5.25;2.40;;;;;;;;;;5050865;28;20112;-83
2021/04/03 12:44:22;;;;;;;7.30;2.38;;;;;;;;;;5062035;28;20024;-83
2021/04/03 12:46:48;;;;;;;6.30;2.33;;;;;;;;;;5061688;28;20016;-84
2021/04/03 12:49:13;;;;;;;3.60;1.67;;;;;;;;;;5058449;28;20112;-83
2021/04/03 12:51:39;;;;;;;4.32;2.05;;;;;;;;;;5061377;28;20031;-83
2021/04/03 12:54:05;;;;;;;4.18;1.70;;;;;;;;;;5062175;28;20021;-83
2021/04/03 12:56:30;;;;;;;4.63;1.42;;;;;;;;;;5058643;28;20017;-83
2021/04/03 12:58:56;;;;;;;6.82;1.90;;;;;;;;;;5060982;28;20008;-84
2021/04/03 13:01:22;;;;;;;5.80;1.92;;;;;;;;;;5063292;28;20013;-84
2021/04/03 13:03:48;;;;;;;3.78;1.70;;;;;;;;;;5060458;28;20043;-82
2021/04/03 13:06:13;;;;;;;7.00;2.33;;;;;;;;;;5057678;28;20035;-84
2021/04/03 13:08:39;;;;;;;3.08;1.35;;;;;;;;;;5061132;28;20215;-84
2021/04/03 13:11:05;;;;;;;5.32;1.55;;;;;;;;;;5057178;28;20021;-84
2021/04/03 13:13:31;;;;;;;4.13;1.90;;;;;;;;;;5056788;28;20539;-84
2021/04/03 13:15:56;;;;;;;5.43;1.70;;;;;;;;;;5058910;28;20033;-83
2021/04/03 13:18:22;;;;;;;5.07;1.88;;;;;;;;;;5064222;28;20136;-82
2021/04/03 13:20:48;;;;;;;3.03;1.50;;;;;;;;;;5064334;28;20143;-83
2021/04/03 13:23:14;;;;;;;4.55;1.08;;;;;;;;;;5056836;28;20146;-83
2021/04/03 13:25:41;;;;;;;4.90;1.80;;;;;;;;;;5050736;28;20017;-83
2021/04/03 13:28:07;;;;;;;5.53;1.50;;;;;;;;;;5042650;28;20370;-83
2021/04/03 13:30:32;;;;;;;4.00;1.48;;;;;;;;;;5044629;28;20092;-84
2021/04/03 13:32:58;;;;;;;5.65;1.98;;;;;;;;;;5049255;28;20013;-83
2021/04/03 13:35:24;;;;;;;5.70;2.53;;;;;;;;;;5044605;28;20538;-83
2021/04/03 13:37:49;;;;;;;3.95;1.40;;;;;;;;;;5047299;28;20440;-83
2021/04/03 13:40:16;;;;;;;3.17;1.50;;;;;;;;;;5042935;28;20010;-83
2021/04/03 13:42:41;;;;;;;3.22;1.63;;;;;;;;;;5050263;28;20037;-84
2021/04/03 13:45:07;;;;;;;6.13;1.50;;;;;;;;;;5045374;28;20032;-83
2021/04/03 13:47:33;;;;;;;6.35;1.42;;;;;;;;;;5045048;28;20432;-84
2021/04/03 13:50:15;;;;;;;5.82;1.48;;;;;;;;;;5048199;28;20039;-84
2021/04/03 13:52:41;;;;;;;4.88;1.63;;;;;;;;;;5017811;28;20448;-83
2021/04/03 13:55:07;;;;;;;4.22;1.40;;;;;;;;;;5049305;28;20116;-84
2021/04/03 13:57:32;;;;;;;3.30;1.27;;;;;;;;;;5051593;28;20029;-84
2021/04/03 13:59:58;;;;;;;5.15;1.65;;;;;;;;;;5041493;28;20411;-83
2021/04/03 14:02:24;;;;;;;7.43;1.90;;;;;;;;;;5053573;28;20032;-83
2021/04/03 14:04:49;;;;;;;4.57;1.48;;;;;;;;;;5062775;28;20025;-83
2021/04/03 14:07:15;;;;;;;4.82;1.70;;;;;;;;;;5067909;28;20040;-82
2021/04/03 14:09:41;;;;;;;4.97;1.70;;;;;;;;;;5064843;28;20025;-83
2021/04/03 14:12:07;;;;;;;5.35;1.83;;;;;;;;;;5056568;28;20029;-84
2021/04/03 14:14:33;;;;;;;7.00;1.40;;;;;;;;;;5055828;28;20033;-84
2021/04/03 14:16:59;;;;;;;4.03;1.40;;;;;;;;;;5042182;28;20438;-84
2021/04/03 14:19:24;;;;;;;4.50;1.65;;;;;;;;;;5065980;28;20044;-84
2021/04/03 14:21:50;;;;;;;4.85;2.10;;;;;;;;;;5048360;28;20125;-84
2021/04/03 14:24:16;;;;;;;4.50;2.08;;;;;;;;;;5044518;28;20021;-83
2021/04/03 14:26:41;;;;;;;7.40;2.70;;;;;;;;;;5063957;28;20021;-84
2021/04/03 14:29:07;;;;;;;7.95;1.90;;;;;;;;;;5056810;28;20014;-84
2021/04/03 14:31:33;;;;;;;6.82;1.65;;;;;;;;;;5057338;28;20112;-84
2021/04/03 14:34:00;;;;;;;3.13;1.20;;;;;;;;;;5035534;28;20053;-83
2021/04/03 14:36:25;;;;;;;6.30;1.90;;;;;;;;;;5050957;28;20501;-84
2021/04/03 14:38:51;;;;;;;3.22;1.42;;;;;;;;;;5044204;28;20029;-84
2021/04/03 14:41:17;;;;;;;5.20;1.60;;;;;;;;;;5031597;28;20017;-84
2021/04/03 14:43:42;;;;;;;5.25;1.20;;;;;;;;;;5045537;28;20116;-84
2021/04/03 14:46:09;;;;;;;5.22;1.83;;;;;;;;;;5038767;28;20064;-84
2021/04/03 14:48:35;;;;;;;4.28;1.40;;;;;;;;;;5049426;28;20381;-84
2021/04/03 14:51:01;;;;;;;2.97;1.20;;;;;;;;;;5039681;28;20076;-84
2021/04/03 14:53:26;;;;;;;4.55;1.90;;;;;;;;;;5050114;28;20021;-84
2021/04/03 14:55:52;;;;;;;3.78;1.52;;;;;;;;;;5040082;28;20026;-84
2021/04/03 14:58:18;;;;;;;5.05;1.50;;;;;;;;;;5047602;28;20108;-84
2021/04/03 15:00:44;;;;;;;5.50;1.40;;;;;;;;;;5046828;28;20507;-84
2021/04/03 15:03:09;;;;;;;4.82;1.73;;;;;;;;;;5045258;28;20102;-83
2021/04/03 15:05:35;;;;;;;4.38;1.77;;;;;;;;;;5040698;28;20095;-84
2021/04/03 15:08:00;;;;;;;5.70;1.77;;;;;;;;;;5038913;28;20116;-84
2021/04/03 15:10:26;;;;;;;7.07;2.00;;;;;;;;;;5041760;28;20013;-84
2021/04/03 15:12:52;;;;;;;3.78;1.48;;;;;;;;;;5043834;28;20028;-84
2021/04/03 15:15:17;;;;;;;5.15;1.60;;;;;;;;;;5045576;28;20095;-84
2021/04/03 15:17:43;;;;;;;5.70;2.38;;;;;;;;;;5040379;28;20081;-84
2021/04/03 15:20:09;;;;;;;5.20;1.55;;;;;;;;;;5042776;28;20101;-84
2021/04/03 15:22:35;;;;;;;4.45;1.70;;;;;;;;;;5046434;28;20025;-84
2021/04/03 15:25:01;;;;;;;4.45;1.70;;;;;;;;;;5035584;28;20026;-84
2021/04/03 15:27:26;;;;;;;3.03;1.23;;;;;;;;;;5041354;28;20047;-84
2021/04/03 15:29:55;;;;;;;8.85;2.00;;;;;;;;;;5038270;28;20028;-84
2021/04/03 15:32:21;;;;;;;5.75;2.90;;;;;;;;;;5045573;28;20048;-84
2021/04/03 15:34:46;;;;;;;3.75;1.80;;;;;;;;;;5045489;28;20052;-84
2021/04/03 15:37:12;;;;;;;4.13;1.48;;;;;;;;;;5041960;28;20034;-84
2021/04/03 15:39:39;;;;;;;6.85;1.70;;;;;;;;;;5045523;28;20023;-84
2021/04/03 15:42:05;;;;;;;5.55;2.28;;;;;;;;;;5031974;28;20088;-84
2021/04/03 15:44:30;;;;;;;5.63;2.05;;;;;;;;;;5040421;28;20028;-84
2021/04/03 15:46:56;;;;;;;6.65;2.35;;;;;;;;;;5035441;28;20493;-84
2021/04/03 15:49:23;;;;;;;4.65;2.50;;;;;;;;;;5041377;28;20024;-84
2021/04/03 15:51:49;;;;;;;5.68;2.47;;;;;;;;;;5039056;28;20017;-84
2021/04/03 15:54:14;;;;;;;6.60;1.92;;;;;;;;;;5040539;28;20125;-84
2021/04/03 15:56:40;;;;;;;4.30;1.60;;;;;;;;;;5040746;28;20028;-84
2021/04/03 15:59:06;;;;;;;5.68;1.33;;;;;;;;;;5039860;28;20017;-84
2021/04/03 16:01:31;;;;;;;4.70;1.17;;;;;;;;;;5045486;28;20096;-84
2021/04/03 16:03:57;;;;;;;8.32;1.73;;;;;;;;;;5041157;28;20021;-84
2021/04/03 16:06:23;;;;;;;10.75;1.67;;;;;;;;;;5037769;28;20028;-84
2021/04/03 16:08:48;;;;;;;3.55;1.35;;;;;;;;;;5042998;28;20523;-84
2021/04/03 16:11:14;;;;;;;3.42;1.15;;;;;;;;;;5035948;28;21058;-84
2021/04/03 16:13:40;;;;;;;4.80;1.60;;;;;;;;;;5038966;28;20029;-84
2021/04/03 16:16:06;;;;;;;7.47;1.40;;;;;;;;;;5039553;28;20116;-84
2021/04/03 16:18:31;;;;;;;5.78;1.63;;;;;;;;;;5045266;28;20104;-84
2021/04/03 16:20:57;;;;;;;4.05;1.60;;;;;;;;;;5042306;28;20029;-84
2021/04/03 16:23:23;;;;;;;6.25;1.40;;;;;;;;;;5037456;28;20033;-84
2021/04/03 16:25:53;;;;;;;4.60;1.92;;;;;;;;;;5043899;28;20096;-84
2021/04/03 16:28:18;;;;;;;5.47;1.77;;;;;;;;;;5038682;28;20014;-84
2021/04/03 16:30:44;;;;;;;6.63;1.65;;;;;;;;;;5040121;28;20078;-84
2021/04/03 16:33:10;;;;;;;4.78;1.30;;;;;;;;;;5042356;28;20040;-84
2021/04/03 16:35:35;;;;;;;3.40;1.40;;;;;;;;;;5039310;28;20067;-84
2021/04/03 16:38:01;;;;;;;6.78;1.90;;;;;;;;;;5043373;28;20047;-83
2021/04/03 16:40:27;;;;;;;4.38;1.85;;;;;;;;;;5036916;28;20049;-83
2021/04/03 16:42:52;;;;;;;6.13;1.80;;;;;;;;;;5043263;28;20116;-83
2021/04/03 16:45:18;;;;;;;4.65;1.60;;;;;;;;;;5037242;28;20108;-83
2021/04/03 16:47:44;;;;;;;3.67;1.23;;;;;;;;;;5040248;28;20132;-83
2021/04/03 16:50:10;;;;;;;6.82;1.75;;;;;;;;;;5038477;28;20029;-83
2021/04/03 16:52:37;;;;;;;8.63;2.00;;;;;;;;;;5040043;28;20098;-83
2021/04/03 16:55:04;;;;;;;6.07;1.52;;;;;;;;;;5041746;28;20098;-83
2021/04/03 16:57:29;;;;;;;7.85;1.98;;;;;;;;;;5041224;28;20021;-83
2021/04/03 16:59:55;;;;;;;8.10;1.77;;;;;;;;;;5037092;28;20105;-83
2021/04/03 17:02:21;;;;;;;6.55;1.40;;;;;;;;;;5054383;28;20077;-83
2021/04/03 17:04:47;;;;;;;6.63;2.00;;;;;;;;;;5043267;28;20034;-82
2021/04/03 17:07:12;;;;;;;6.22;1.80;;;;;;;;;;5050811;28;20045;-83
2021/04/03 17:11:56;;;;;;;6.10;2.42;;;;;;;;;;5110774;27;20426;-82
2021/04/03 17:16:40;;;;;;;4.80;1.35;;;;;;;;;;5081961;28;21227;-82
2021/04/03 17:19:06;;;;;;;6.63;2.58;;;;;;;;;;5074121;28;20037;-81
2021/04/03 17:21:31;;;;;;;6.40;1.73;;;;;;;;;;5067133;28;20497;-83
2021/04/03 17:23:57;;;;;;;5.25;1.95;;;;;;;;;;5066071;28;20112;-82
2021/04/03 17:26:23;;;;;;;8.70;1.70;;;;;;;;;;5070116;28;20033;-82
2021/04/03 17:28:48;;;;;;;4.90;1.88;;;;;;;;;;5066792;28;20029;-82
2021/04/03 17:31:14;;;;;;;6.43;1.65;;;;;;;;;;5072754;28;20116;-82
2021/04/03 17:33:40;;;;;;;3.25;1.45;;;;;;;;;;5062553;28;20502;-82
2021/04/03 17:36:06;;;;;;;4.93;1.33;;;;;;;;;;5075897;28;20100;-82
2021/04/03 17:38:32;;;;;;;4.95;2.00;;;;;;;;;;5064015;28;20022;-82
2021/04/03 17:40:57;;;;;;;4.30;1.63;;;;;;;;;;5065197;28;20466;-82
2021/04/03 17:43:23;;;;;;;3.35;1.60;;;;;;;;;;5070409;28;20025;-82
2021/04/03 17:45:49;;;;;;;4.15;1.55;;;;;;;;;;5065359;28;20025;-82
2021/04/03 17:48:15;;;;;;;4.35;1.48;;;;;;;;;;5069870;28;20485;-82
2021/04/03 17:50:41;;;;;;;3.08;1.23;;;;;;;;;;5065826;28;20028;-82
2021/04/03 17:53:07;;;;;;;3.25;1.00;;;;;;;;;;5066639;28;20024;-82
2021/04/03 17:55:33;;;;;;;3.05;1.10;;;;;;;;;;5067775;28;20025;-81
2021/04/03 17:57:58;;;;;;;1.90;0.88;;;;;;;;;;5064985;28;20059;-82
2021/04/03 18:00:24;;;;;;;2.90;1.15;;;;;;;;;;5068481;28;20025;-81
2021/04/03 18:05:08;;;;;;;5.15;1.75;;;;;;;;;;5107415;28;20360;-82
2021/04/03 18:07:34;;;;;;;5.25;0.95;;;;;;;;;;5087084;28;20058;-82
2021/04/03 18:09:59;;;;;;;6.50;1.77;;;;;;;;;;5099612;28;20109;-82
2021/04/03 18:12:25;;;;;;;6.55;1.60;;;;;;;;;;5102394;28;20080;-82
2021/04/03 18:17:22;;;;;;;7.03;1.20;;;;;;;;;;5076979;28;20442;-85
2021/04/03 18:19:47;;;;;;;3.65;1.50;;;;;;;;;;5067860;28;20393;-85
2021/04/03 18:22:14;;;;;;;2.63;1.13;;;;;;;;;;5066626;28;20055;-82
2021/04/03 18:24:42;;;;;;;4.53;1.23;;;;;;;;;;5059863;28;20084;-82
2021/04/03 18:27:08;;;;;;;2.60;0.90;;;;;;;;;;5061272;28;20503;-82
2021/04/03 18:29:34;;;;;;;6.63;1.15;;;;;;;;;;5069921;28;20024;-82
2021/04/03 18:32:00;;;;;;;3.00;1.00;;;;;;;;;;5067947;28;20017;-82
2021/04/03 18:34:26;;;;;;;1.77;1.00;;;;;;;;;;5064405;28;20024;-82
2021/04/03 18:36:51;;;;;;;4.60;1.73;;;;;;;;;;5065718;28;20017;-82
2021/04/03 18:39:17;;;;;;;5.40;1.60;;;;;;;;;;5064227;28;20024;-82
2021/04/03 18:41:43;;;;;;;4.93;1.52;;;;;;;;;;5069687;28;20400;-81
2021/04/03 18:56:55;;;;;;;3.30;1.48;;;;;;;;;;5056887;28;20408;-81
2021/04/03 18:59:20;;;;;;;2.67;1.10;;;;;;;;;;5042595;28;20076;-82
2021/04/03 19:01:46;;;;;;;2.38;1.00;;;;;;;;;;5051287;28;20107;-82
2021/04/03 19:04:13;;;;;;;2.60;1.02;;;;;;;;;;5054459;28;20060;-81
2021/04/03 19:06:39;;;;;;;3.90;1.38;;;;;;;;;;5046240;28;20094;-82
2021/04/03 19:09:04;;;;;;;3.00;1.10;;;;;;;;;;5049760;28;20022;-80
2021/04/03 19:11:30;;;;;;;3.28;1.30;;;;;;;;;;5045040;28;20432;-81
2021/04/03 19:13:55;;;;;;;2.70;1.23;;;;;;;;;;5046387;28;20456;-81
2021/04/03 19:16:21;;;;;;;3.22;1.20;;;;;;;;;;5046530;28;20427;-81
2021/04/03 19:18:47;;;;;;;4.38;1.20;;;;;;;;;;5045911;28;20435;-81
2021/04/03 19:21:12;;;;;;;2.78;1.27;;;;;;;;;;5054052;28;20044;-81
2021/04/03 19:23:38;;;;;;;3.35;1.13;;;;;;;;;;5039338;28;20030;-82
2021/04/03 19:26:04;;;;;;;2.95;1.40;;;;;;;;;;5053277;28;20017;-81
2021/04/03 19:28:29;;;;;;;2.20;1.13;;;;;;;;;;5021890;28;20117;-81
2021/04/03 19:30:55;;;;;;;3.17;1.20;;;;;;;;;;5048238;28;20021;-81
2021/04/03 19:33:21;;;;;;;5.00;1.58;;;;;;;;;;5050686;28;20360;-81
2021/04/03 19:35:46;;;;;;;4.65;2.05;;;;;;;;;;5048132;28;20109;-81
2021/04/03 19:38:12;;;;;;;2.95;1.17;;;;;;;;;;5050392;28;20036;-82
2021/04/03 19:40:38;;;;;;;4.53;1.35;;;;;;;;;;5035570;28;20485;-81
2021/04/03 19:43:03;;;;;;;4.82;1.77;;;;;;;;;;5049146;28;20164;-81
2021/04/03 19:45:29;;;;;;;4.28;1.30;;;;;;;;;;5045327;28;20022;-81
2021/04/03 19:47:55;;;;;;;4.03;1.20;;;;;;;;;;5047397;28;20124;-81
2021/04/03 19:50:20;;;;;;;3.20;1.50;;;;;;;;;;5051111;28;20471;-81
2021/04/03 19:52:46;;;;;;;2.40;1.08;;;;;;;;;;5048536;28;20430;-81
2021/04/03 19:55:13;;;;;;;4.03;1.40;;;;;;;;;;5050512;28;20044;-81
2021/04/03 19:57:39;;;;;;;5.82;1.33;;;;;;;;;;5036682;28;20044;-81
2021/04/03 20:00:06;;;;;;;2.85;1.27;;;;;;;;;;5032460;28;20027;-81
2021/04/03 20:02:31;;;;;;;6.25;1.80;;;;;;;;;;5048687;28;20044;-80
2021/04/03 20:04:57;;;;;;;2.67;1.10;;;;;;;;;;5036480;28;20028;-81
2021/04/03 20:07:23;;;;;;;4.22;1.38;;;;;;;;;;5032126;28;20089;-81
2021/04/03 20:09:49;;;;;;;4.72;2.20;;;;;;;;;;5012992;28;20014;-81
2021/04/03 20:12:15;;;;;;;3.85;1.52;;;;;;;;;;5036258;28;20041;-81